Time;durP1;ratioP1;P1;durP2;ratioP2;P2;SDS_P1;SDS_P2;PMS_P1;PMS_P2;Temp;Humidity;BMP_temperature;BMP_pressure;BME280_temperature;BME280_humidity;BME280_pressure;Samples;Min_cycle;Max_cycle;Signal;HPM_P1;HPM_P2
2023/07/12 00:00:46;;;;;;;17.23;6.50;;;;;;;21.54;60.06;94262.78;5066151;28;20143;-78
2023/07/12 00:03:13;;;;;;;9.50;5.80;;;;;;;21.49;60.40;94254.97;5066323;28;20319;-78
2023/07/12 00:05:38;;;;;;;11.20;5.60;;;;;;;21.41;60.87;94257.59;5066161;28;20023;-78
2023/07/12 00:08:04;;;;;;;11.10;6.22;;;;;;;21.35;60.99;94256.38;5066072;28;20096;-78
2023/07/12 00:10:34;;;;;;;11.23;5.53;;;;;;;21.31;61.44;94252.88;5066024;28;20272;-79
2023/07/12 00:13:00;;;;;;;11.20;6.45;;;;;;;21.35;61.17;94255.59;5066202;28;20112;-79
2023/07/12 00:15:30;;;;;;;13.85;5.85;;;;;;;21.32;60.87;94245.50;5065997;28;20033;-79
2023/07/12 00:17:56;;;;;;;11.43;5.57;;;;;;;21.32;61.25;94246.28;5065829;28;20043;-78
2023/07/12 00:20:33;;;;;;;24.02;6.38;;;;;;;21.27;61.14;94235.78;5066155;28;20037;-79
2023/07/12 00:22:59;;;;;;;13.43;6.43;;;;;;;21.18;61.63;94240.69;5066203;28;20163;-79
2023/07/12 00:25:28;;;;;;;9.68;6.00;;;;;;;21.19;62.21;94242.28;5065627;28;20329;-79
2023/07/12 00:27:54;;;;;;;12.45;6.22;;;;;;;21.14;61.82;94240.66;5065511;28;20291;-78
2023/07/12 00:30:22;;;;;;;11.90;5.78;;;;;;;21.16;61.82;94237.59;5065801;28;20040;-78
2023/07/12 00:32:52;;;;;;;9.18;5.70;;;;;;;21.17;62.26;94233.75;5065550;28;20033;-78
2023/07/12 00:35:21;;;;;;;11.80;6.53;;;;;;;21.08;61.40;94235.94;5065440;28;20020;-78
2023/07/12 00:37:47;;;;;;;18.17;7.07;;;;;;;21.00;61.38;94230.47;5064492;28;20021;-78
2023/07/12 00:40:31;;;;;;;12.07;6.22;;;;;;;21.07;61.63;94234.41;5065817;28;20223;-79
2023/07/12 00:43:09;;;;;;;14.55;7.05;;;;;;;21.04;60.94;94225.88;5065364;28;20025;-78
2023/07/12 00:45:35;;;;;;;14.32;7.07;;;;;;;21.02;61.33;94222.75;5065703;28;20025;-78
2023/07/12 00:48:01;;;;;;;9.48;5.95;;;;;;;21.05;61.56;94232.06;5065311;28;20056;-79
2023/07/12 00:50:26;;;;;;;11.50;6.40;;;;;;;20.97;61.27;94222.28;5065317;28;20179;-79
2023/07/12 00:52:52;;;;;;;15.70;5.72;;;;;;;20.93;61.76;94230.38;5065315;28;20024;-79
2023/07/12 00:55:55;;;;;;;10.70;5.38;;;;;;;20.94;61.75;94226.50;5065270;28;20031;-79
2023/07/12 00:58:26;;;;;;;13.88;5.95;;;;;;;20.97;62.43;94222.28;5065120;28;20107;-79
2023/07/12 01:00:52;;;;;;;12.63;6.25;;;;;;;20.95;62.19;94211.81;5065104;28;20342;-78
2023/07/12 01:03:19;;;;;;;9.35;5.60;;;;;;;20.93;61.92;94221.47;5065282;28;20039;-78
2023/07/12 01:05:45;;;;;;;11.82;5.72;;;;;;;20.93;62.39;94222.25;5065117;28;20029;-79
2023/07/12 01:08:13;;;;;;;10.70;6.40;;;;;;;20.88;62.48;94216.38;5063613;28;20067;-79
2023/07/12 01:10:38;;;;;;;10.73;6.03;;;;;;;20.79;62.48;94211.25;5064801;28;20036;-79
2023/07/12 01:13:05;;;;;;;9.70;5.72;;;;;;;20.80;62.86;94210.88;5064975;28;20029;-78
2023/07/12 01:15:32;;;;;;;12.88;5.90;;;;;;;20.79;61.28;94211.25;5064749;28;20040;-78
2023/07/12 01:17:58;;;;;;;8.82;5.32;;;;;;;20.73;61.76;94210.00;5064859;28;20329;-78
2023/07/12 01:20:24;;;;;;;16.73;6.93;;;;;;;20.68;61.96;94208.41;5064697;28;20033;-78
2023/07/12 01:22:54;;;;;;;11.38;6.82;;;;;;;20.70;61.92;94222.38;5064674;28;20059;-78
2023/07/12 01:25:39;;;;;;;13.20;5.63;;;;;;;20.69;61.83;94222.72;5064963;28;20044;-79
2023/07/12 01:28:05;;;;;;;14.95;6.70;;;;;;;20.63;62.44;94206.03;5064859;28;20226;-79
2023/07/12 01:30:32;;;;;;;9.68;6.15;;;;;;;20.66;62.35;94213.41;5063482;28;20104;-79
2023/07/12 01:33:00;;;;;;;13.07;6.25;;;;;;;20.52;63.30;94218.63;5064484;28;20044;-79
2023/07/12 01:35:26;;;;;;;11.07;7.32;;;;;;;20.45;63.47;94219.28;5064715;28;20275;-78
2023/07/12 01:37:51;;;;;;;9.90;6.18;;;;;;;20.51;62.81;94220.53;5064693;28;20017;-78
2023/07/12 01:40:17;;;;;;;12.18;6.20;;;;;;;20.55;62.95;94215.94;5064241;28;20041;-78
2023/07/12 01:42:43;;;;;;;18.58;6.97;;;;;;;20.54;63.11;94222.53;5064329;28;20057;-78
2023/07/12 01:45:08;;;;;;;10.68;6.30;;;;;;;20.52;63.13;94222.13;5064572;28;20029;-78
2023/07/12 01:47:34;;;;;;;9.35;6.35;;;;;;;20.44;64.10;94228.59;5064445;28;20262;-79
2023/07/12 01:50:00;;;;;;;16.48;6.55;;;;;;;20.48;63.43;94224.00;5064158;28;20334;-79
2023/07/12 01:52:47;;;;;;;10.05;5.35;;;;;;;20.54;62.99;94236.06;5064209;28;20033;-77
2023/07/12 01:55:13;;;;;;;8.38;6.13;;;;;;;20.48;63.24;94232.13;5061436;28;20044;-78
2023/07/12 01:57:38;;;;;;;10.45;6.05;;;;;;;20.48;63.50;94226.69;5063569;28;20021;-78
2023/07/12 02:00:05;;;;;;;11.75;6.13;;;;;;;20.44;64.21;94231.28;5062853;28;20306;-79
2023/07/12 02:02:30;;;;;;;13.35;6.35;;;;;;;20.41;64.05;94232.00;5063907;28;20075;-78
2023/07/12 02:04:55;;;;;;;16.02;6.55;;;;;;;20.41;63.92;94230.09;5063930;28;20037;-77
2023/07/12 02:07:21;;;;;;;11.52;6.28;;;;;;;20.38;64.09;94230.03;5063699;28;20028;-78
2023/07/12 02:10:08;;;;;;;14.05;6.47;;;;;;;20.39;64.66;94232.41;5063680;28;20031;-77
2023/07/12 02:12:34;;;;;;;11.85;6.45;;;;;;;20.39;64.94;94228.88;5063769;28;20032;-77
2023/07/12 02:14:59;;;;;;;13.38;5.88;;;;;;;20.46;63.69;94233.63;5063726;28;20025;-79
2023/07/12 02:17:24;;;;;;;13.77;6.28;;;;;;;20.47;63.30;94240.59;5063782;28;20013;-78
2023/07/12 02:19:50;;;;;;;14.23;6.38;;;;;;;20.43;63.34;94245.97;5061945;28;20025;-77
2023/07/12 02:22:15;;;;;;;15.68;6.68;;;;;;;20.40;64.00;94252.13;5063505;28;20341;-77
2023/07/12 02:24:41;;;;;;;10.00;6.22;;;;;;;20.39;64.21;94247.84;5063489;28;20029;-78
2023/07/12 02:27:06;;;;;;;11.43;6.05;;;;;;;20.40;63.91;94252.13;5063431;28;20080;-78
2023/07/12 02:29:31;;;;;;;14.00;6.07;;;;;;;20.39;63.86;94251.34;5063532;28;20021;-78
2023/07/12 02:31:57;;;;;;;14.15;6.28;;;;;;;20.38;64.23;94247.06;5063343;28;20033;-78
2023/07/12 02:34:22;;;;;;;12.23;5.88;;;;;;;20.38;63.92;94243.59;5062239;28;20089;-78
2023/07/12 02:36:48;;;;;;;10.30;6.50;;;;;;;20.33;64.23;94252.00;5063151;28;20017;-79
2023/07/12 02:39:13;;;;;;;12.20;6.88;;;;;;;20.33;64.44;94260.13;5063427;28;20013;-79
2023/07/12 02:41:38;;;;;;;12.07;6.32;;;;;;;20.30;64.69;94250.03;5063351;28;20020;-79
2023/07/12 02:44:04;;;;;;;15.75;6.55;;;;;;;20.31;64.76;94254.28;5063156;28;20059;-79
2023/07/12 02:46:29;;;;;;;13.93;7.30;;;;;;;20.33;64.68;94262.84;5063274;28;20023;-79
2023/07/12 02:48:55;;;;;;;14.18;6.88;;;;;;;20.35;64.55;94268.66;5063118;28;20318;-79
2023/07/12 02:51:20;;;;;;;10.02;6.03;;;;;;;20.32;64.70;94255.88;5063152;28;20024;-79
2023/07/12 02:53:45;;;;;;;14.65;6.38;;;;;;;20.31;64.37;94268.59;5061761;28;20048;-78
2023/07/12 02:56:11;;;;;;;9.82;5.88;;;;;;;20.30;64.80;94260.88;5062877;28;20101;-78
2023/07/12 02:58:37;;;;;;;12.50;6.43;;;;;;;20.32;64.71;94266.69;5061902;28;20789;-78
2023/07/12 03:01:02;;;;;;;16.92;6.20;;;;;;;20.33;64.78;94273.66;5063120;28;20092;-78
2023/07/12 03:03:28;;;;;;;13.48;7.57;;;;;;;20.32;65.56;94283.72;5062980;28;20306;-78
2023/07/12 03:05:53;;;;;;;13.35;6.82;;;;;;;20.27;65.67;94277.81;5063212;28;20310;-78
2023/07/12 03:08:19;;;;;;;11.20;7.15;;;;;;;20.23;66.11;94289.41;5062726;28;20084;-79
2023/07/12 03:10:44;;;;;;;14.02;7.00;;;;;;;20.15;66.54;94287.72;5062792;28;20326;-78
2023/07/12 03:13:09;;;;;;;15.63;6.70;;;;;;;20.14;66.79;94278.03;5062923;28;20216;-78
2023/07/12 03:15:38;;;;;;;22.13;6.60;;;;;;;20.14;67.25;94283.44;5062938;28;20020;-78
2023/07/12 03:18:04;;;;;;;27.20;7.32;;;;;;;20.11;67.50;94284.19;5062768;28;20040;-77
2023/07/12 03:20:32;;;;;;;18.80;7.00;;;;;;;20.10;67.52;94281.84;5062808;28;20223;-77
2023/07/12 03:22:58;;;;;;;39.30;7.72;;;;;;;20.03;67.63;94277.09;5062647;28;20021;-78
2023/07/12 03:25:23;;;;;;;18.83;6.50;;;;;;;20.06;68.26;94295.28;5062623;28;20223;-78
2023/07/12 03:27:50;;;;;;;20.13;6.10;;;;;;;19.93;68.29;94288.53;5062918;28;20061;-79
2023/07/12 03:30:16;;;;;;;14.50;7.47;;;;;;;19.94;68.24;94292.78;5062825;28;20223;-78
2023/07/12 03:32:41;;;;;;;16.08;6.35;;;;;;;19.94;68.59;94284.66;5066851;28;20045;-78
2023/07/12 03:35:07;;;;;;;31.73;6.82;;;;;;;19.87;68.69;94289.97;5067032;28;20021;-78
2023/07/12 03:37:33;;;;;;;21.80;7.07;;;;;;;19.84;69.32;94294.16;5066844;28;20083;-79
2023/07/12 03:39:58;;;;;;;18.73;8.35;;;;;;;19.85;69.04;94293.03;5066948;28;20347;-78
2023/07/12 03:42:23;;;;;;;21.77;8.02;;;;;;;19.84;69.30;94294.97;5067099;28;20028;-78
2023/07/12 03:44:49;;;;;;;16.92;8.25;;;;;;;19.88;69.54;94297.72;5066978;28;20033;-78
2023/07/12 03:47:14;;;;;;;25.70;8.70;;;;;;;19.83;69.55;94304.22;5066763;28;20025;-79
2023/07/12 03:49:40;;;;;;;28.92;7.85;;;;;;;19.91;69.96;94309.75;5066270;28;20107;-79
2023/07/12 03:52:05;;;;;;;22.30;7.05;;;;;;;19.95;70.45;94310.59;5066701;28;20087;-78
2023/07/12 03:54:31;;;;;;;17.30;7.35;;;;;;;19.95;69.87;94316.00;5066652;28;20049;-79
2023/07/12 03:56:56;;;;;;;16.45;7.10;;;;;;;20.00;69.76;94307.56;5066632;28;20044;-79
2023/07/12 03:59:22;;;;;;;18.63;7.60;;;;;;;19.97;69.96;94319.13;5065474;28;20032;-80
2023/07/12 04:01:47;;;;;;;17.05;7.82;;;;;;;19.93;69.19;94313.66;5066329;28;20037;-79
2023/07/12 04:04:12;;;;;;;15.35;7.82;;;;;;;20.05;69.16;94318.09;5066008;28;20334;-79
2023/07/12 04:06:38;;;;;;;13.98;8.15;;;;;;;20.01;68.78;94318.03;5066351;28;20036;-80
2023/07/12 04:09:03;;;;;;;12.70;8.43;;;;;;;20.03;69.09;94310.34;5066034;28;20083;-80
2023/07/12 04:11:31;;;;;;;13.68;7.90;;;;;;;20.07;69.08;94315.81;5066426;28;20037;-79
2023/07/12 04:14:02;;;;;;;17.67;7.75;;;;;;;20.16;69.49;94302.81;5066149;28;20025;-80
2023/07/12 04:16:29;;;;;;;13.35;7.88;;;;;;;20.29;68.68;94299.88;5066212;28;20024;-79
2023/07/12 04:18:54;;;;;;;17.67;8.25;;;;;;;20.35;68.23;94298.44;5065871;28;20029;-80
2023/07/12 04:21:20;;;;;;;26.92;9.80;;;;;;;20.42;68.60;94303.97;5066502;28;20147;-80
2023/07/12 04:23:47;;;;;;;29.90;10.98;;;;;;;20.48;68.04;94302.50;5066099;28;20426;-80
2023/07/12 04:26:13;;;;;;;18.83;9.65;;;;;;;20.54;67.58;94295.63;5065743;28;20020;-79
2023/07/12 04:28:39;;;;;;;29.60;14.52;;;;;;;20.60;67.05;94301.56;5065965;28;20091;-80
2023/07/12 04:31:09;;;;;;;29.20;13.90;;;;;;;20.67;67.36;94308.97;5065993;28;20253;-80
2023/07/12 04:33:34;;;;;;;15.68;10.65;;;;;;;20.62;67.84;94299.25;5065908;28;20234;-78
2023/07/12 04:36:04;;;;;;;22.58;9.85;;;;;;;20.69;67.24;94307.47;5065970;28;20028;-79
2023/07/12 04:38:30;;;;;;;26.95;11.00;;;;;;;20.78;67.69;94309.91;5065657;28;20100;-79
2023/07/12 04:40:55;;;;;;;19.88;9.68;;;;;;;20.79;67.46;94304.13;5065656;28;20028;-80
2023/07/12 04:43:22;;;;;;;18.25;10.55;;;;;;;20.90;67.18;94309.66;5065566;28;20021;-80
2023/07/12 04:45:48;;;;;;;16.98;9.80;;;;;;;20.96;67.38;94313.63;5065373;28;20066;-80
2023/07/12 04:48:14;;;;;;;16.83;9.95;;;;;;;21.04;66.38;94312.56;5063958;28;20212;-79
2023/07/12 04:50:39;;;;;;;16.55;10.90;;;;;;;21.11;65.26;94313.81;5065340;28;20028;-80
2023/07/12 04:53:04;;;;;;;28.30;11.85;;;;;;;21.21;65.14;94318.59;5065697;28;20243;-80
2023/07/12 04:55:30;;;;;;;17.98;10.43;;;;;;;21.29;65.15;94322.94;5065263;28;20282;-79
2023/07/12 04:57:56;;;;;;;18.23;10.20;;;;;;;21.38;65.27;94319.94;5065265;28;20071;-80
2023/07/12 05:00:26;;;;;;;31.65;11.10;;;;;;;21.37;65.10;94313.72;5065074;28;20303;-79
2023/07/12 05:02:53;;;;;;;21.20;8.73;;;;;;;21.43;64.46;94322.31;5065133;28;20329;-80
2023/07/12 05:05:20;;;;;;;20.77;10.73;;;;;;;21.51;64.36;94323.19;5063839;28;20032;-80
2023/07/12 05:07:46;;;;;;;21.38;9.50;;;;;;;21.56;64.56;94314.72;5065001;28;20025;-79
2023/07/12 05:10:11;;;;;;;16.35;10.32;;;;;;;21.64;64.73;94319.06;5065024;28;20330;-79
2023/07/12 05:12:38;;;;;;;20.33;10.07;;;;;;;21.72;65.80;94309.84;5064970;28;20096;-80
2023/07/12 05:15:04;;;;;;;25.88;9.90;;;;;;;21.78;65.58;94299.44;5064912;28;20032;-78
2023/07/12 05:17:30;;;;;;;21.00;10.23;;;;;;;;;;5063635;28;20216;-79
2023/07/12 05:19:56;;;;;;;32.88;11.38;;;;;;;21.86;65.65;94305.69;5064727;28;20028;-80
2023/07/12 05:22:22;;;;;;;29.73;11.38;;;;;;;21.95;66.08;94306.19;5064776;28;20040;-80
2023/07/12 05:24:47;;;;;;;33.25;10.85;;;;;;;22.01;65.83;94301.97;5064507;28;20032;-79
2023/07/12 05:27:13;;;;;;;20.33;10.70;;;;;;;22.09;65.26;94300.88;5064546;28;20079;-79
2023/07/12 05:29:38;;;;;;;22.58;10.10;;;;;;;22.14;65.65;94305.94;5064755;28;20096;-75
2023/07/12 05:32:04;;;;;;;32.85;10.75;;;;;;;22.26;66.19;94306.84;5064864;28;20070;-75
2023/07/12 05:34:31;;;;;;;22.55;10.70;;;;;;;22.31;65.59;94307.28;5064803;28;20254;-75
2023/07/12 05:36:56;;;;;;;24.83;10.05;;;;;;;22.41;65.27;94311.22;5064634;28;20021;-75
2023/07/12 05:39:22;;;;;;;20.92;9.45;;;;;;;22.47;65.90;94315.16;5064552;28;20029;-76
2023/07/12 05:41:47;;;;;;;33.95;10.75;;;;;;;22.56;64.70;94317.53;5064694;28;20105;-76
2023/07/12 05:44:13;;;;;;;31.88;10.60;;;;;;;22.68;64.77;94321.88;5064419;28;20021;-76
2023/07/12 05:46:38;;;;;;;31.13;10.32;;;;;;;22.71;64.22;94321.09;5064422;28;20035;-76
2023/07/12 05:49:04;;;;;;;23.77;9.93;;;;;;;22.80;63.18;94325.06;5064333;28;20044;-76
2023/07/12 05:51:29;;;;;;;19.98;9.32;;;;;;;22.90;62.53;94322.75;5064476;28;20032;-77
2023/07/12 05:53:54;;;;;;;19.95;9.05;;;;;;;23.05;61.55;94319.00;5063510;28;20108;-76
2023/07/12 05:56:20;;;;;;;22.25;9.70;;;;;;;23.18;60.86;94324.88;5063853;28;20029;-76
2023/07/12 05:58:45;;;;;;;23.48;9.43;;;;;;;23.29;59.98;94325.69;5063787;28;20287;-75
2023/07/12 06:01:11;;;;;;;16.65;8.05;;;;;;;23.31;58.61;94336.97;5062667;28;20017;-76
2023/07/12 06:03:36;;;;;;;18.42;9.65;;;;;;;23.37;57.58;94331.94;5064075;28;20032;-76
2023/07/12 06:06:05;;;;;;;16.42;8.85;;;;;;;23.39;56.87;94333.13;5064077;28;20021;-76
2023/07/12 06:08:31;;;;;;;19.50;8.23;;;;;;;23.44;56.88;94330.00;5063841;28;20087;-75
2023/07/12 06:10:56;;;;;;;22.80;8.70;;;;;;;23.48;55.99;94337.41;5063786;28;20036;-76
2023/07/12 06:13:22;;;;;;;16.23;8.20;;;;;;;23.49;55.80;94344.41;5063814;28;20024;-76
2023/07/12 06:15:47;;;;;;;15.73;7.82;;;;;;;23.49;55.92;94337.03;5063982;28;20024;-76
2023/07/12 06:18:13;;;;;;;14.93;7.70;;;;;;;23.45;55.34;94336.25;5063698;28;20016;-76
2023/07/12 06:20:38;;;;;;;15.07;7.28;;;;;;;23.41;55.59;94336.25;5063912;28;20029;-76
2023/07/12 06:23:04;;;;;;;13.90;7.05;;;;;;;23.52;55.01;94340.94;5063707;28;20029;-75
2023/07/12 06:25:30;;;;;;;15.30;7.35;;;;;;;23.55;54.13;94345.59;5063862;28;20045;-77
2023/07/12 06:27:56;;;;;;;15.38;7.93;;;;;;;23.57;54.34;94338.63;5063649;28;20037;-76
2023/07/12 06:30:21;;;;;;;19.48;8.13;;;;;;;23.63;54.11;94341.75;5061780;28;20020;-76
2023/07/12 06:32:47;;;;;;;19.73;8.20;;;;;;;23.67;54.51;94328.13;5061860;28;20017;-75
2023/07/12 06:35:13;;;;;;;24.00;8.75;;;;;;;23.74;55.01;94334.38;5061820;28;20035;-75
2023/07/12 06:37:39;;;;;;;29.85;9.35;;;;;;;23.82;56.32;94343.38;5060651;28;20029;-80
2023/07/12 06:40:05;;;;;;;26.23;10.02;;;;;;;23.92;56.08;94334.44;5061396;28;20028;-78
2023/07/12 06:42:31;;;;;;;30.02;9.35;;;;;;;24.00;56.24;94337.97;5058615;28;20041;-79
2023/07/12 06:44:57;;;;;;;20.67;8.57;;;;;;;24.07;56.07;94335.22;5059178;28;20029;-79
2023/07/12 06:47:22;;;;;;;17.60;8.55;;;;;;;24.10;56.84;94336.41;5061009;28;20029;-79
2023/07/12 06:49:48;;;;;;;22.08;8.60;;;;;;;24.11;56.49;94327.84;5061183;28;20024;-79
2023/07/12 06:52:13;;;;;;;15.15;8.20;;;;;;;24.19;56.50;94318.50;5060735;28;20269;-79
2023/07/12 06:54:38;;;;;;;23.80;8.60;;;;;;;24.30;56.81;94326.69;5060264;28;20123;-79
2023/07/12 06:57:05;;;;;;;29.73;8.93;;;;;;;24.43;56.33;94322.41;5060802;28;20033;-79
2023/07/12 06:59:30;;;;;;;18.25;9.13;;;;;;;24.53;55.70;94320.88;5060812;28;20099;-79
2023/07/12 07:01:55;;;;;;;20.58;8.15;;;;;;;24.54;55.42;94325.13;5060991;28;20099;-79
2023/07/12 07:04:21;;;;;;;29.10;9.20;;;;;;;24.45;55.27;94311.13;5061349;28;20056;-80
2023/07/12 07:06:47;;;;;;;19.90;8.32;;;;;;;24.55;54.90;94326.72;5061192;28;20274;-79
2023/07/12 07:09:12;;;;;;;16.60;8.27;;;;;;;24.56;54.57;94339.16;5061439;28;20046;-79
2023/07/12 07:11:38;;;;;;;15.52;9.48;;;;;;;24.70;54.28;94332.13;5062556;28;20025;-78
2023/07/12 07:14:03;;;;;;;23.38;9.40;;;;;;;24.84;54.31;94334.84;5062956;28;20272;-79
2023/07/12 07:16:30;;;;;;;21.42;8.68;;;;;;;24.94;54.10;94334.03;5062675;28;20196;-79
2023/07/12 07:18:55;;;;;;;28.98;9.18;;;;;;;24.99;52.84;94341.03;5062827;28;20086;-79
2023/07/12 07:21:21;;;;;;;20.40;9.65;;;;;;;25.05;53.39;94346.84;5062700;28;20259;-79
2023/07/12 07:23:46;;;;;;;18.23;8.32;;;;;;;25.11;52.92;94351.50;5062504;28;20251;-79
2023/07/12 07:26:12;;;;;;;13.30;7.65;;;;;;;25.20;52.09;94357.34;5062989;28;20020;-80
2023/07/12 07:28:38;;;;;;;21.80;7.70;;;;;;;25.24;51.95;94357.38;5062898;28;20045;-80
2023/07/12 07:31:04;;;;;;;16.50;7.47;;;;;;;25.26;51.62;94349.56;5062602;28;20044;-80
2023/07/12 07:33:30;;;;;;;13.77;7.63;;;;;;;25.27;51.48;94340.19;5062447;28;20033;-80
2023/07/12 07:35:56;;;;;;;26.75;8.75;;;;;;;25.19;51.53;94344.09;5062312;28;20071;-79
2023/07/12 07:38:26;;;;;;;21.05;7.53;;;;;;;25.31;52.05;94332.78;5062229;28;20029;-79
2023/07/12 07:40:53;;;;;;;16.38;7.28;;;;;;;25.41;50.90;94328.44;5062181;28;20022;-79
2023/07/12 07:43:18;;;;;;;14.10;8.00;;;;;;;25.51;50.85;94329.56;5062337;28;20029;-79
2023/07/12 07:45:44;;;;;;;20.67;7.63;;;;;;;25.60;51.95;94335.38;5062241;28;20024;-78
2023/07/12 07:48:10;;;;;;;18.30;7.63;;;;;;;25.70;51.91;94331.81;5062128;28;20092;-78
2023/07/12 07:50:36;;;;;;;19.00;7.10;;;;;;;25.77;51.10;94345.44;5062185;28;20231;-79
2023/07/12 07:53:03;;;;;;;14.85;7.28;;;;;;;25.82;51.08;94336.81;5062494;28;20044;-79
2023/07/12 07:55:28;;;;;;;22.25;7.47;;;;;;;26.00;50.51;94341.41;5062009;28;20049;-80
2023/07/12 07:57:54;;;;;;;19.73;7.70;;;;;;;26.17;51.14;94331.53;5062486;28;20119;-79
2023/07/12 08:00:19;;;;;;;16.95;8.88;;;;;;;26.32;50.38;94334.97;5062334;28;20021;-80
2023/07/12 08:02:46;;;;;;;18.98;7.70;;;;;;;26.24;50.82;94334.22;5062457;28;20075;-79
2023/07/12 08:05:13;;;;;;;27.80;7.95;;;;;;;26.24;49.76;94328.75;5062262;28;20345;-80
2023/07/12 08:07:40;;;;;;;12.77;7.60;;;;;;;26.40;49.45;94339.19;5062551;28;20025;-79
2023/07/12 08:10:07;;;;;;;17.88;7.35;;;;;;;26.51;49.16;94334.38;5062325;28;20031;-79
2023/07/12 08:12:33;;;;;;;19.55;6.85;;;;;;;26.53;48.08;94332.03;5062314;28;20017;-80
2023/07/12 08:14:59;;;;;;;12.00;8.05;;;;;;;26.63;47.96;94335.13;5062057;28;20104;-79
2023/07/12 08:17:24;;;;;;;12.07;7.20;;;;;;;26.70;48.43;94340.50;5063602;28;20311;-79
2023/07/12 08:19:51;;;;;;;20.15;7.40;;;;;;;26.84;48.37;94343.09;5065909;28;20033;-79
2023/07/12 08:22:19;;;;;;;12.10;7.45;;;;;;;26.91;47.78;94340.31;5066030;28;20239;-79
2023/07/12 08:24:46;;;;;;;37.10;7.60;;;;;;;27.05;47.32;94336.66;5065656;28;20115;-79
2023/07/12 08:27:12;;;;;;;15.05;7.68;;;;;;;27.14;47.82;94345.13;5065663;28;20035;-80
2023/07/12 08:29:38;;;;;;;12.20;7.18;;;;;;;27.28;48.17;94344.22;5065822;28;20041;-80
2023/07/12 08:32:04;;;;;;;27.60;7.80;;;;;;;27.39;47.80;94342.13;5065736;28;20032;-80
2023/07/12 08:34:29;;;;;;;22.27;7.85;;;;;;;27.55;47.53;94335.31;5065724;28;20063;-80
2023/07/12 08:36:55;;;;;;;19.55;7.63;;;;;;;27.60;46.80;94346.59;5065671;28;20024;-80
2023/07/12 08:39:20;;;;;;;14.68;7.82;;;;;;;27.56;46.58;94337.63;5065778;28;20120;-79
2023/07/12 08:41:46;;;;;;;17.15;7.30;;;;;;;27.56;46.68;94347.78;5065569;28;20017;-80
2023/07/12 08:44:14;;;;;;;22.52;8.00;;;;;;;27.59;47.17;94352.47;5065663;28;20021;-80
2023/07/12 08:46:45;;;;;;;12.45;7.13;;;;;;;27.65;46.62;94350.06;5065670;28;20092;-80
2023/07/12 08:49:15;;;;;;;17.23;7.38;;;;;;;27.69;45.89;94339.81;5065431;28;20252;-80
2023/07/12 08:51:40;;;;;;;23.55;8.27;;;;;;;27.70;46.83;94341.38;5065287;28;20314;-80
2023/07/12 08:54:33;;;;;;;21.33;8.30;;;;;;;27.75;45.21;94338.94;5065411;28;20052;-80
2023/07/12 08:57:22;;;;;;;18.45;8.73;;;;;;;27.84;46.75;94343.91;5065349;28;20037;-80
2023/07/12 09:00:05;;;;;;;16.17;8.30;;;;;;;27.95;47.04;94338.31;5065138;28;20035;-80
2023/07/12 09:02:31;;;;;;;11.90;7.35;;;;;;;28.09;46.88;94343.59;5065108;28;20033;-80
2023/07/12 09:04:59;;;;;;;21.67;8.48;;;;;;;28.18;47.03;94330.13;5064848;28;20096;-80
2023/07/12 09:07:29;;;;;;;22.13;8.38;;;;;;;28.32;47.31;94331.13;5064723;28;20307;-79
2023/07/12 09:09:57;;;;;;;22.20;8.23;;;;;;;28.45;47.00;94325.81;5065141;28;20044;-79
2023/07/12 09:12:29;;;;;;;25.58;8.07;;;;;;;28.61;47.04;94329.47;5064788;28;20024;-80
2023/07/12 09:14:58;;;;;;;;;;;;;;;28.69;45.10;94321.13;5065111;28;20036;-81
2023/07/12 09:17:28;;;;;;;18.77;7.85;;;;;;;28.73;44.54;94319.09;5064842;28;19913;-80
2023/07/12 09:19:54;;;;;;;22.50;7.95;;;;;;;28.72;45.66;94307.38;5064940;28;20025;-80
2023/07/12 09:22:19;;;;;;;24.15;8.38;;;;;;;28.86;46.59;94303.56;5065051;28;20055;-80
2023/07/12 09:24:51;;;;;;;21.85;7.88;;;;;;;28.98;45.64;94297.47;5064684;28;20326;-80
2023/07/12 09:27:22;;;;;;;18.15;7.57;;;;;;;29.12;44.96;94295.69;5064652;28;20386;-80
2023/07/12 09:29:56;;;;;;;27.05;8.02;;;;;;;29.23;44.44;94292.72;5063786;28;20035;-80
2023/07/12 09:32:27;;;;;;;21.30;7.75;;;;;;;29.36;44.92;94297.16;5064487;28;20025;-80
2023/07/12 09:34:54;;;;;;;17.02;8.00;;;;;;;29.47;44.77;94304.38;5064764;28;20029;-80
2023/07/12 09:37:24;;;;;;;23.67;8.02;;;;;;;29.60;44.23;94294.31;5063367;28;20017;-80
2023/07/12 09:39:59;;;;;;;23.88;6.75;;;;;;;29.56;42.79;94288.13;5064527;28;20052;-80
2023/07/12 09:42:25;;;;;;;17.85;6.95;;;;;;;29.63;40.27;94289.94;5064224;28;20029;-80
2023/07/12 09:44:51;;;;;;;12.80;7.25;;;;;;;29.74;39.08;94288.53;5064444;28;20085;-80
2023/07/12 09:47:34;;;;;;;12.55;7.00;;;;;;;29.70;40.03;94282.31;5064318;28;20227;-80
2023/07/12 09:50:10;;;;;;;19.92;8.35;;;;;;;29.79;38.95;94276.25;5064087;28;20197;-80
2023/07/12 09:52:58;;;;;;;15.52;6.35;;;;;;;29.82;39.90;94283.66;5064382;28;20028;-80
2023/07/12 09:55:38;;;;;;;11.90;7.15;;;;;;;29.85;39.23;94282.03;5063763;28;20053;-80
2023/07/12 09:58:21;;;;;;;11.10;6.80;;;;;;;29.89;41.29;94278.00;5064015;28;20036;-80
2023/07/12 10:00:49;;;;;;;12.45;6.68;;;;;;;29.99;41.71;94281.69;5063692;28;20036;-80
2023/07/12 10:03:27;;;;;;;15.70;6.40;;;;;;;30.17;40.68;94292.28;5063646;28;20056;-80
2023/07/12 10:05:58;;;;;;;17.98;6.10;;;;;;;30.17;38.34;94282.03;5063698;28;20025;-80
2023/07/12 10:08:26;;;;;;;;;;;;;;;30.19;38.63;94274.16;5064057;28;20032;-80
2023/07/12 10:11:00;;;;;;;7.13;4.43;;;;;;;30.22;35.17;94278.00;5063667;28;19971;-80
2023/07/12 10:13:34;;;;;;;17.92;5.15;;;;;;;30.21;35.97;94276.47;5063813;28;20020;-80
2023/07/12 10:16:02;;;;;;;8.82;4.63;;;;;;;30.15;35.99;94273.47;5063243;28;20082;-80
2023/07/12 10:18:33;;;;;;;13.35;5.53;;;;;;;30.14;36.89;94271.91;5063574;28;20017;-80
2023/07/12 10:21:00;;;;;;;11.80;5.00;;;;;;;30.30;36.92;94262.91;5063594;28;20020;-80
2023/07/12 10:23:31;;;;;;;11.32;4.95;;;;;;;30.38;35.96;94258.78;5063474;28;20028;-80
2023/07/12 10:26:01;;;;;;;10.32;4.28;;;;;;;30.56;35.43;94263.06;5063230;28;20013;-80
2023/07/12 10:28:32;;;;;;;15.70;5.55;;;;;;;30.65;36.57;94268.69;5061970;28;20025;-79
2023/07/12 10:31:02;;;;;;;10.32;4.43;;;;;;;30.74;35.74;94257.09;5063313;28;20024;-80
2023/07/12 10:33:37;;;;;;;9.55;5.50;;;;;;;30.77;34.50;94267.22;5063259;28;20349;-79
2023/07/12 10:36:11;;;;;;;10.93;4.53;;;;;;;30.76;35.78;94265.69;5063090;28;20017;-79
2023/07/12 10:38:37;;;;;;;9.68;4.60;;;;;;;30.74;35.31;94265.34;5063609;28;20025;-79
2023/07/12 10:41:28;;;;;;;10.48;5.22;;;;;;;30.59;34.61;94265.72;5063036;28;20330;-79
2023/07/12 10:44:13;;;;;;;11.48;4.88;;;;;;;30.68;35.97;94267.84;5063256;28;20029;-79
2023/07/12 10:46:44;;;;;;;11.75;5.72;;;;;;;30.67;34.82;94262.78;5063378;28;20021;-80
2023/07/12 10:49:16;;;;;;;10.00;4.57;;;;;;;30.68;34.55;94265.09;5063245;28;20032;-80
2023/07/12 10:52:03;;;;;;;9.93;5.28;;;;;;;30.69;35.58;94260.38;5062867;28;20025;-79
2023/07/12 10:54:31;;;;;;;15.60;4.53;;;;;;;30.79;34.18;94257.31;5062754;28;20096;-79
2023/07/12 10:57:19;;;;;;;12.30;4.43;;;;;;;30.81;36.02;94256.91;5062728;28;20075;-80
2023/07/12 10:59:45;;;;;;;7.20;4.35;;;;;;;30.85;34.57;94265.81;5062916;28;20032;-79
2023/07/12 11:02:25;;;;;;;23.90;4.97;;;;;;;30.83;34.74;94254.47;5063232;28;20033;-79
2023/07/12 11:04:51;;;;;;;9.15;4.28;;;;;;;30.90;34.62;94237.81;5062937;28;20043;-79
2023/07/12 11:07:16;;;;;;;7.75;4.68;;;;;;;30.79;35.00;94248.31;5063076;28;20288;-78
2023/07/12 11:12:31;;;;;;;10.95;4.80;;;;;;;30.85;35.48;94243.81;5062766;28;20216;-80
2023/07/12 11:15:24;;;;;;;9.90;4.90;;;;;;;30.95;35.73;94253.00;5062858;28;20095;-79
2023/07/12 11:18:09;;;;;;;8.48;4.78;;;;;;;31.07;35.03;94246.00;5061870;28;20112;-79
2023/07/12 11:20:59;;;;;;;10.38;5.22;;;;;;;31.07;35.31;94249.53;5062943;28;20055;-79
2023/07/12 11:23:43;;;;;;;8.70;4.60;;;;;;;31.11;35.00;94235.66;5062959;28;20043;-79
2023/07/12 11:26:32;;;;;;;11.73;5.00;;;;;;;31.09;35.80;94232.59;5062980;28;20200;-79
2023/07/12 11:29:44;;;;;;;15.07;4.53;;;;;;;31.23;34.91;94232.19;5062745;28;20032;-79
2023/07/12 11:32:30;;;;;;;;;;;;;;;31.35;36.03;94239.69;5060680;28;20039;-79
2023/07/12 11:35:02;;;;;;;8.95;4.38;;;;;;;31.40;33.30;94228.09;5062475;28;19905;-79